createdAt,value
2023-04-15T00:00:57.718Z,25.56
2023-04-15T00:01:57.801Z,25.56
2023-04-15T00:02:57.820Z,25.54
2023-04-15T00:03:57.736Z,25.54
2023-04-15T00:04:57.685Z,25.54
2023-04-15T00:05:57.688Z,25.54
2023-04-15T00:06:57.684Z,25.54
2023-04-15T00:07:57.707Z,25.54
2023-04-15T00:08:57.782Z,25.54
2023-04-15T00:09:57.657Z,25.53
2023-04-15T00:10:57.656Z,25.53
2023-04-15T00:11:57.662Z,25.52
2023-04-15T00:12:57.619Z,25.53
2023-04-15T00:13:57.638Z,25.54
2023-04-15T00:14:57.595Z,25.56
2023-04-15T00:15:57.645Z,25.54
2023-04-15T00:16:57.745Z,25.53
2023-04-15T00:17:57.645Z,25.56
2023-04-15T00:18:57.694Z,25.54
2023-04-15T00:19:57.555Z,25.53
2023-04-15T00:20:57.598Z,25.53
2023-04-15T00:21:57.597Z,25.53
2023-04-15T00:22:57.529Z,25.52
2023-04-15T00:23:57.534Z,25.53
2023-04-15T00:24:57.545Z,25.56
2023-04-15T00:25:57.536Z,25.52
2023-04-15T00:26:57.502Z,25.53
2023-04-15T00:27:57.576Z,25.52
2023-04-15T00:28:57.542Z,25.50
2023-04-15T00:29:57.510Z,25.50
2023-04-15T00:30:57.639Z,25.52
2023-04-15T00:31:57.648Z,25.50
2023-04-15T00:32:57.715Z,25.52
2023-04-15T00:33:57.748Z,25.52
2023-04-15T00:34:57.833Z,25.52
2023-04-15T00:35:57.845Z,25.54
2023-04-15T00:36:57.903Z,25.54
2023-04-15T00:37:57.964Z,25.52
2023-04-15T00:38:58.183Z,25.53
2023-04-15T00:39:58.041Z,25.53
2023-04-15T00:40:58.129Z,25.50
2023-04-15T00:41:58.149Z,25.52
2023-04-15T00:42:58.221Z,25.52
2023-04-15T00:43:58.263Z,25.52
2023-04-15T00:44:58.327Z,25.52
2023-04-15T00:45:58.413Z,25.52
2023-04-15T00:46:58.421Z,25.52
2023-04-15T00:47:58.534Z,25.53
2023-04-15T00:48:58.848Z,25.52
2023-04-15T00:49:58.600Z,25.50
2023-04-15T00:50:58.711Z,25.52
2023-04-15T00:51:58.739Z,25.52
2023-04-15T00:52:58.805Z,25.53
2023-04-15T00:53:58.835Z,25.50
2023-04-15T00:54:58.922Z,25.52
2023-04-15T00:55:58.990Z,25.50
2023-04-15T00:56:59.063Z,25.52
2023-04-15T00:57:59.061Z,25.50
2023-04-15T00:58:59.251Z,25.50
2023-04-15T00:59:59.165Z,25.49
2023-04-15T01:00:59.228Z,25.50
2023-04-15T01:01:59.393Z,25.50
2023-04-15T01:02:59.386Z,25.49
2023-04-15T01:03:59.383Z,25.52
2023-04-15T01:04:59.347Z,25.50
2023-04-15T01:06:00.911Z,25.50
2023-04-15T01:06:59.426Z,25.52
2023-04-15T01:07:59.388Z,25.49
2023-04-15T01:08:59.531Z,25.49
2023-04-15T01:09:59.375Z,25.49
2023-04-15T01:10:59.376Z,25.49
2023-04-15T01:11:59.351Z,25.47
2023-04-15T01:13:00.183Z,25.47
2023-04-15T01:14:00.161Z,25.52
2023-04-15T01:14:59.346Z,25.49
2023-04-15T01:15:59.485Z,25.49
2023-04-15T01:16:59.319Z,25.50
2023-04-15T01:17:59.349Z,25.52
2023-04-15T01:18:59.525Z,25.50
2023-04-15T01:19:59.322Z,25.50
2023-04-15T01:20:59.309Z,25.49
2023-04-15T01:21:59.292Z,25.47
2023-04-15T01:22:59.346Z,25.49
2023-04-15T01:23:59.287Z,25.49
2023-04-15T01:24:59.264Z,25.49
2023-04-15T01:25:59.259Z,25.49
2023-04-15T01:26:59.232Z,25.49
2023-04-15T01:27:59.257Z,25.49
2023-04-15T01:28:59.573Z,25.49
2023-04-15T01:29:59.232Z,25.50
2023-04-15T01:30:59.222Z,25.50
2023-04-15T01:31:59.264Z,25.50
2023-04-15T01:32:59.246Z,25.50
2023-04-15T01:33:59.203Z,25.50
2023-04-15T01:34:59.179Z,25.49
2023-04-15T01:35:59.226Z,25.49
2023-04-15T01:36:59.179Z,25.50
2023-04-15T01:37:59.149Z,25.49
2023-04-15T01:38:59.440Z,25.50
2023-04-15T01:39:59.306Z,25.49
2023-04-15T01:40:59.362Z,25.52
2023-04-15T01:41:59.484Z,25.50
2023-04-15T01:42:59.426Z,25.49
2023-04-15T01:43:59.526Z,25.47
2023-04-15T01:44:59.591Z,25.50
2023-04-15T01:45:59.600Z,25.50
2023-04-15T01:46:59.740Z,25.49
2023-04-15T01:47:59.707Z,25.52
2023-04-15T01:48:59.866Z,25.47
2023-04-15T01:49:59.709Z,25.50
2023-04-15T01:50:59.730Z,25.52
2023-04-15T01:51:59.740Z,25.49
2023-04-15T01:52:59.804Z,25.49
2023-04-15T01:53:59.859Z,25.49
2023-04-15T01:54:59.859Z,25.49
2023-04-15T01:55:59.887Z,25.53
2023-04-15T01:56:59.940Z,25.47
2023-04-15T01:57:59.938Z,25.50
2023-04-15T01:59:00.151Z,25.49
2023-04-15T02:00:00.036Z,25.50
2023-04-15T02:01:00.148Z,25.47
2023-04-15T02:02:00.195Z,25.50
2023-04-15T02:03:00.227Z,25.47
2023-04-15T02:04:00.236Z,25.49
2023-04-15T02:05:00.224Z,25.47
2023-04-15T02:06:00.273Z,25.47
2023-04-15T02:07:00.344Z,25.50
2023-04-15T02:08:00.415Z,25.49
2023-04-15T02:09:00.713Z,25.50
2023-04-15T02:10:00.513Z,25.49
2023-04-15T02:11:00.538Z,25.50
2023-04-15T02:12:00.618Z,25.50
2023-04-15T02:13:00.632Z,25.49
2023-04-15T02:14:00.686Z,25.47
2023-04-15T02:15:00.710Z,25.47
2023-04-15T02:16:00.780Z,25.50
2023-04-15T02:17:00.839Z,25.47
2023-04-15T02:18:01.004Z,25.47
2023-04-15T02:19:01.156Z,25.47
2023-04-15T02:20:00.965Z,25.49
2023-04-15T02:21:00.971Z,25.47
2023-04-15T02:22:01.036Z,25.49
2023-04-15T02:23:01.086Z,25.47
2023-04-15T02:24:01.115Z,25.49
2023-04-15T02:25:01.186Z,25.49
2023-04-15T02:26:01.239Z,25.47
2023-04-15T02:27:01.281Z,25.50
2023-04-15T02:28:01.304Z,25.47
2023-04-15T02:29:01.572Z,25.46
2023-04-15T02:30:01.446Z,25.47
2023-04-15T02:31:01.462Z,25.49
2023-04-15T02:32:01.541Z,25.47
2023-04-15T02:33:01.567Z,25.46
2023-04-15T02:34:01.540Z,25.47
2023-04-15T02:35:01.594Z,25.46
2023-04-15T02:36:01.594Z,25.47
2023-04-15T02:37:01.696Z,25.47
2023-04-15T02:38:01.714Z,25.46
2023-04-15T02:39:01.947Z,25.47
2023-04-15T02:40:01.742Z,25.47
2023-04-15T02:41:01.828Z,25.46
2023-04-15T02:42:01.844Z,25.47
2023-04-15T02:43:01.948Z,25.47
2023-04-15T02:44:01.892Z,25.50
2023-04-15T02:45:01.931Z,25.47
2023-04-15T02:46:02.034Z,25.47
2023-04-15T02:47:02.009Z,25.44
2023-04-15T02:48:02.054Z,25.44
2023-04-15T02:49:02.278Z,25.44
2023-04-15T02:50:02.119Z,25.47
2023-04-15T02:51:02.147Z,25.49
2023-04-15T02:52:02.173Z,25.46
2023-04-15T02:53:02.172Z,25.47
2023-04-15T02:54:02.228Z,25.47
2023-04-15T02:55:02.269Z,25.49
2023-04-15T02:56:02.309Z,25.46
2023-04-15T02:57:02.320Z,25.46
2023-04-15T02:58:02.361Z,25.46
2023-04-15T02:59:02.584Z,25.44
2023-04-15T03:00:03.214Z,25.44
2023-04-15T03:01:02.509Z,25.44
2023-04-15T03:02:02.559Z,25.47
2023-04-15T03:03:02.635Z,25.44
2023-04-15T03:04:02.728Z,25.46
2023-04-15T03:05:02.628Z,25.46
2023-04-15T03:06:02.686Z,25.44
2023-04-15T03:07:02.719Z,25.44
2023-04-15T03:08:02.779Z,25.46
2023-04-15T03:09:02.913Z,25.44
2023-04-15T03:10:02.865Z,25.44
2023-04-15T03:11:02.941Z,25.44
2023-04-15T03:12:03.047Z,25.44
2023-04-15T03:13:03.009Z,25.46
2023-04-15T03:14:03.046Z,25.47
2023-04-15T03:15:03.081Z,25.44
2023-04-15T03:16:03.113Z,25.47
2023-04-15T03:17:03.141Z,25.46
2023-04-15T03:18:03.237Z,25.44
2023-04-15T03:19:03.514Z,25.47
2023-04-15T03:20:03.327Z,25.43
2023-04-15T03:21:03.293Z,25.46
2023-04-15T03:22:03.312Z,25.46
2023-04-15T03:23:03.344Z,25.46
2023-04-15T03:24:03.404Z,25.46
2023-04-15T03:25:03.456Z,25.42
2023-04-15T03:26:03.507Z,25.46
2023-04-15T03:27:03.570Z,25.44
2023-04-15T03:28:03.609Z,25.44
2023-04-15T03:29:03.777Z,25.44
2023-04-15T03:30:03.717Z,25.46
2023-04-15T03:31:03.780Z,25.44
2023-04-15T03:32:03.828Z,25.44
2023-04-15T03:33:03.853Z,25.46
2023-04-15T03:34:03.922Z,25.43
2023-04-15T03:35:03.974Z,25.47
2023-04-15T03:36:04.053Z,25.46
2023-04-15T03:37:04.104Z,25.43
2023-04-15T03:38:04.139Z,25.46
2023-04-15T03:39:04.265Z,25.44
2023-04-15T03:40:04.229Z,25.43
2023-04-15T03:41:04.263Z,25.47
2023-04-15T03:42:04.354Z,25.46
2023-04-15T03:43:04.307Z,25.44
2023-04-15T03:44:04.361Z,25.46
2023-04-15T03:45:04.357Z,25.44
2023-04-15T03:46:04.441Z,25.44
2023-04-15T03:47:04.384Z,25.44
2023-04-15T03:48:16.552Z,25.44
2023-04-15T03:49:05.402Z,25.46
2023-04-15T03:50:04.393Z,25.43
2023-04-15T03:51:04.383Z,25.44
2023-04-15T03:52:04.378Z,25.42
2023-04-15T03:53:04.396Z,25.42
2023-04-15T03:54:04.395Z,25.42
2023-04-15T03:55:04.354Z,25.43
2023-04-15T03:56:04.371Z,25.43
2023-04-15T03:57:04.350Z,25.43
2023-04-15T03:58:04.344Z,25.43
2023-04-15T03:59:04.377Z,25.43
2023-04-15T04:00:04.398Z,25.43
2023-04-15T04:01:04.460Z,25.39
2023-04-15T04:02:04.519Z,25.42
2023-04-15T04:03:04.756Z,25.40
2023-04-15T04:04:04.710Z,25.43
2023-04-15T04:05:04.596Z,25.42
2023-04-15T04:06:04.609Z,25.43
2023-04-15T04:07:04.654Z,25.39
2023-04-15T04:08:04.665Z,25.40
2023-04-15T04:09:04.688Z,25.42
2023-04-15T04:10:04.739Z,25.40
2023-04-15T04:11:04.758Z,25.42
2023-04-15T04:12:04.782Z,25.43
2023-04-15T04:13:04.789Z,25.42
2023-04-15T04:14:04.797Z,25.39
2023-04-15T04:15:04.802Z,25.42
2023-04-15T04:16:04.971Z,25.42
2023-04-15T04:17:04.974Z,25.39
2023-04-15T04:18:04.964Z,25.39
2023-04-15T04:19:04.949Z,25.40
2023-04-15T04:20:04.981Z,25.40
2023-04-15T04:21:04.981Z,25.42
2023-04-15T04:22:04.957Z,25.39
2023-04-15T04:23:04.939Z,25.40
2023-04-15T04:24:04.968Z,25.39
2023-04-15T04:25:05.000Z,25.43
2023-04-15T04:26:04.987Z,25.39
2023-04-15T04:27:05.004Z,25.42
2023-04-15T04:28:05.012Z,25.40
2023-04-15T04:29:05.051Z,25.39
2023-04-15T04:30:05.105Z,25.40
2023-04-15T04:31:05.085Z,25.40
2023-04-15T04:32:05.182Z,25.42
2023-04-15T04:33:05.199Z,25.40
2023-04-15T04:34:05.174Z,25.42
2023-04-15T04:35:05.166Z,25.40
2023-04-15T04:36:05.175Z,25.39
2023-04-15T04:37:05.218Z,25.43
2023-04-15T04:38:05.229Z,25.42
2023-04-15T04:39:05.282Z,25.42
2023-04-15T04:40:05.276Z,25.42
2023-04-15T04:41:05.321Z,25.43
2023-04-15T04:42:05.336Z,25.40
2023-04-15T04:43:05.367Z,25.42
2023-04-15T04:44:05.395Z,25.40
2023-04-15T04:45:05.412Z,25.40
2023-04-15T04:46:05.502Z,25.40
2023-04-15T04:47:05.456Z,25.40
2023-04-15T04:48:05.510Z,25.40
2023-04-15T04:49:05.449Z,25.39
2023-04-15T04:50:05.500Z,25.39
2023-04-15T04:51:05.538Z,25.37
2023-04-15T04:52:05.546Z,25.42
2023-04-15T04:53:05.521Z,25.40
2023-04-15T04:54:05.566Z,25.40
2023-04-15T04:55:05.572Z,25.39
2023-04-15T04:56:05.664Z,25.40
2023-04-15T04:57:05.610Z,25.42
2023-04-15T04:58:05.642Z,25.39
2023-04-15T04:59:05.652Z,25.40
2023-04-15T05:00:05.705Z,25.42
2023-04-15T05:01:05.757Z,25.39
2023-04-15T05:02:05.774Z,25.39
2023-04-15T05:03:05.904Z,25.42
2023-04-15T05:04:05.981Z,25.40
2023-04-15T05:05:05.791Z,25.40
2023-04-15T05:06:05.851Z,25.40
2023-04-15T05:07:05.865Z,25.43
2023-04-15T05:08:05.923Z,25.40
2023-04-15T05:09:05.912Z,25.39
2023-04-15T05:10:05.949Z,25.42
2023-04-15T05:11:05.970Z,25.40
2023-04-15T05:12:05.979Z,25.37
2023-04-15T05:13:05.986Z,25.40
2023-04-15T05:14:06.044Z,25.40
2023-04-15T05:15:06.061Z,25.39
2023-04-15T05:16:06.145Z,25.40
2023-04-15T05:17:06.150Z,25.37
2023-04-15T05:18:06.233Z,25.40
2023-04-15T05:19:06.150Z,25.39
2023-04-15T05:20:06.171Z,25.40
2023-04-15T05:21:06.165Z,25.39
2023-04-15T05:22:06.174Z,25.36
2023-04-15T05:23:06.194Z,25.40
2023-04-15T05:24:06.188Z,25.40
2023-04-15T05:25:06.220Z,25.40
2023-04-15T05:26:06.265Z,25.39
2023-04-15T05:27:06.284Z,25.42
2023-04-15T05:28:06.317Z,25.42
2023-04-15T05:29:06.282Z,25.40
2023-04-15T05:30:06.325Z,25.42
2023-04-15T05:31:06.356Z,25.43
2023-04-15T05:32:06.355Z,25.42
2023-04-15T05:33:06.343Z,25.42
2023-04-15T05:34:06.391Z,25.44
2023-04-15T05:35:06.390Z,25.43
2023-04-15T05:36:06.430Z,25.42
2023-04-15T05:37:06.416Z,25.44
2023-04-15T05:38:06.490Z,25.42
2023-04-15T05:39:06.453Z,25.43
2023-04-15T05:40:06.490Z,25.43
2023-04-15T05:41:06.521Z,25.43
2023-04-15T05:42:06.564Z,25.40
2023-04-15T05:43:06.513Z,25.40
2023-04-15T05:44:06.529Z,25.44
2023-04-15T05:45:06.542Z,25.42
2023-04-15T05:46:06.579Z,25.42
2023-04-15T05:47:06.634Z,25.42
2023-04-15T05:48:06.647Z,25.43
2023-04-15T05:49:06.655Z,25.42
2023-04-15T05:50:06.745Z,25.39
2023-04-15T05:51:06.699Z,25.40
2023-04-15T05:52:06.738Z,25.40
2023-04-15T05:53:06.729Z,25.40
2023-04-15T05:54:06.771Z,25.42
2023-04-15T05:55:06.803Z,25.39
2023-04-15T05:56:06.796Z,25.39
2023-04-15T05:57:06.813Z,25.42
2023-04-15T05:58:06.901Z,25.40
2023-04-15T05:59:06.904Z,25.42
2023-04-15T06:00:06.914Z,25.40
2023-04-15T06:01:06.941Z,25.39
2023-04-15T06:02:06.998Z,25.40
2023-04-15T06:03:07.045Z,25.39
2023-04-15T06:04:07.102Z,25.42
2023-04-15T06:05:07.032Z,25.39
2023-04-15T06:06:07.035Z,25.42
2023-04-15T06:07:07.065Z,25.37
2023-04-15T06:08:07.068Z,25.39
2023-04-15T06:09:07.070Z,25.40
2023-04-15T06:10:07.095Z,25.42
2023-04-15T06:11:07.163Z,25.40
2023-04-15T06:12:07.182Z,25.40
2023-04-15T06:13:07.186Z,25.40
2023-04-15T06:14:07.245Z,25.39
2023-04-15T06:15:07.219Z,25.39
2023-04-15T06:16:07.290Z,25.40
2023-04-15T06:17:07.300Z,25.43
2023-04-15T06:18:07.292Z,25.39
2023-04-15T06:19:07.292Z,25.39
2023-04-15T06:20:07.341Z,25.42
2023-04-15T06:21:07.392Z,25.43
2023-04-15T06:22:07.389Z,25.40
2023-04-15T06:23:07.426Z,25.42
2023-04-15T06:24:07.433Z,25.40
2023-04-15T06:25:07.450Z,25.40
2023-04-15T06:26:07.482Z,25.42
2023-04-15T06:27:07.485Z,25.43
2023-04-15T06:28:07.507Z,25.42
2023-04-15T06:29:07.539Z,25.43
2023-04-15T06:30:07.563Z,25.42
2023-04-15T06:31:07.684Z,25.44
2023-04-15T06:32:07.669Z,25.42
2023-04-15T06:33:07.685Z,25.44
2023-04-15T06:34:08.315Z,25.43
2023-04-15T06:35:07.720Z,25.44
2023-04-15T06:36:07.752Z,25.42
2023-04-15T06:37:07.781Z,25.44
2023-04-15T06:38:07.805Z,25.40
2023-04-15T06:39:07.848Z,25.44
2023-04-15T06:40:07.856Z,25.43
2023-04-15T06:41:07.875Z,25.46
2023-04-15T06:42:07.904Z,25.46
2023-04-15T06:43:07.929Z,25.44
2023-04-15T06:44:07.966Z,25.44
2023-04-15T06:45:08.011Z,25.46
2023-04-15T06:46:08.006Z,25.44
2023-04-15T06:47:08.009Z,25.43
2023-04-15T06:48:08.004Z,25.44
2023-04-15T06:49:08.047Z,25.47
2023-04-15T06:50:08.077Z,25.44
2023-04-15T06:51:08.136Z,25.46
2023-04-15T06:52:08.190Z,25.46
2023-04-15T06:53:08.241Z,25.49
2023-04-15T06:54:08.269Z,25.50
2023-04-15T06:55:08.327Z,25.49
2023-04-15T06:56:08.344Z,25.46
2023-04-15T06:57:08.394Z,25.47
2023-04-15T06:58:08.455Z,25.49
2023-04-15T06:59:08.496Z,25.47
2023-04-15T07:00:08.573Z,25.47
2023-04-15T07:01:08.632Z,25.49
2023-04-15T07:02:08.728Z,25.49
2023-04-15T07:03:08.750Z,25.47
2023-04-15T07:04:08.743Z,25.50
2023-04-15T07:05:08.766Z,25.49
2023-04-15T07:06:08.787Z,25.49
2023-04-15T07:07:08.844Z,25.49
2023-04-15T07:08:08.876Z,25.47
2023-04-15T07:09:08.947Z,25.47
2023-04-15T07:10:08.969Z,25.49
2023-04-15T07:11:09.020Z,25.49
2023-04-15T07:12:09.009Z,25.47
2023-04-15T07:13:09.058Z,25.49
2023-04-15T07:14:09.090Z,25.49
2023-04-15T07:15:09.136Z,25.47
2023-04-15T07:16:09.171Z,25.47
2023-04-15T07:17:09.507Z,25.52
2023-04-15T07:18:09.619Z,25.52
2023-04-15T07:19:09.486Z,25.50
2023-04-15T07:20:09.327Z,25.53
2023-04-15T07:21:09.398Z,25.50
2023-04-15T07:22:09.472Z,25.49
2023-04-15T07:23:09.519Z,25.52
2023-04-15T07:24:09.550Z,25.50
2023-04-15T07:25:09.646Z,25.52
2023-04-15T07:26:09.684Z,25.49
2023-04-15T07:27:09.756Z,25.54
2023-04-15T07:28:09.757Z,25.52
2023-04-15T07:29:09.825Z,25.54
2023-04-15T07:30:09.925Z,25.54
2023-04-15T07:31:09.964Z,25.54
2023-04-15T07:32:09.990Z,25.53
2023-04-15T07:33:10.048Z,25.57
2023-04-15T07:34:10.056Z,25.53
2023-04-15T07:35:10.122Z,25.56
2023-04-15T07:36:10.214Z,25.57
2023-04-15T07:37:10.231Z,25.59
2023-04-15T07:38:10.302Z,25.59
2023-04-15T07:39:10.358Z,25.56
2023-04-15T07:40:10.397Z,25.57
2023-04-15T07:41:10.485Z,25.54
2023-04-15T07:42:10.557Z,25.59
2023-04-15T07:43:10.618Z,25.57
2023-04-15T07:44:10.663Z,25.60
2023-04-15T07:45:10.702Z,25.60
2023-04-15T07:46:10.808Z,25.59
2023-04-15T07:47:10.825Z,25.59
2023-04-15T07:48:10.856Z,25.59
2023-04-15T07:49:10.946Z,25.60
2023-04-15T07:50:10.984Z,25.60
2023-04-15T07:51:11.062Z,25.57
2023-04-15T07:52:11.075Z,25.59
2023-04-15T07:53:11.155Z,25.60
2023-04-15T07:54:11.239Z,25.62
2023-04-15T07:55:11.314Z,25.62
2023-04-15T07:56:11.356Z,25.60
2023-04-15T07:57:11.431Z,25.60
2023-04-15T07:58:11.466Z,25.59
2023-04-15T07:59:11.557Z,25.62
2023-04-15T08:00:11.619Z,25.60
2023-04-15T08:01:11.665Z,25.62
2023-04-15T08:02:11.865Z,25.60
2023-04-15T08:03:11.916Z,25.62
2023-04-15T08:04:12.007Z,25.63
2023-04-15T08:05:11.989Z,25.60
2023-04-15T08:06:11.997Z,25.62
2023-04-15T08:07:12.032Z,25.62
2023-04-15T08:08:12.247Z,25.63
2023-04-15T08:09:12.190Z,25.64
2023-04-15T08:10:12.240Z,25.64
2023-04-15T08:11:12.326Z,25.64
2023-04-15T08:12:12.378Z,25.64
2023-04-15T08:13:12.458Z,25.64
2023-04-15T08:14:12.481Z,25.66
2023-04-15T08:15:12.563Z,25.66
2023-04-15T08:16:12.717Z,25.66
2023-04-15T08:17:12.718Z,25.66
2023-04-15T08:18:12.766Z,25.69
2023-04-15T08:19:12.804Z,25.67
2023-04-15T08:20:12.893Z,25.66
2023-04-15T08:21:12.951Z,25.67
2023-04-15T08:22:18.502Z,25.69
2023-04-15T08:23:13.995Z,25.67
2023-04-15T08:24:12.965Z,25.66
2023-04-15T08:25:12.993Z,25.67
2023-04-15T08:26:13.005Z,25.69
2023-04-15T08:27:12.945Z,25.69
2023-04-15T08:28:12.968Z,25.69
2023-04-15T08:29:12.993Z,25.67
2023-04-15T08:30:12.940Z,25.67
2023-04-15T08:31:12.942Z,25.70
2023-04-15T08:32:13.039Z,25.69
2023-04-15T08:33:13.039Z,25.67
2023-04-15T08:34:13.126Z,25.72
2023-04-15T08:35:13.168Z,25.70
2023-04-15T08:36:13.241Z,25.70
2023-04-15T08:37:13.282Z,25.73
2023-04-15T08:38:13.347Z,25.73
2023-04-15T08:39:13.438Z,25.70
2023-04-15T08:40:13.478Z,25.73
2023-04-15T08:41:13.519Z,25.72
2023-04-15T08:42:13.619Z,25.72
2023-04-15T08:43:13.663Z,25.69
2023-04-15T08:44:13.722Z,25.73
2023-04-15T08:45:13.806Z,25.70
2023-04-15T08:46:13.865Z,25.72
2023-04-15T08:47:13.945Z,25.72
2023-04-15T08:48:13.955Z,25.72
2023-04-15T08:49:14.058Z,25.72
2023-04-15T08:50:14.088Z,25.70
2023-04-15T08:51:14.181Z,25.69
2023-04-15T08:52:14.253Z,25.72
2023-04-15T08:53:14.286Z,25.72
2023-04-15T08:54:14.334Z,25.73
2023-04-15T08:55:14.408Z,25.72
2023-04-15T08:56:14.447Z,25.73
2023-04-15T08:57:14.535Z,25.72
2023-04-15T08:58:14.624Z,25.72
2023-04-15T08:59:14.637Z,25.72
2023-04-15T09:00:14.698Z,25.72
2023-04-15T09:01:14.816Z,25.70
2023-04-15T09:02:14.868Z,25.72
2023-04-15T09:03:14.955Z,25.73
2023-04-15T09:04:15.012Z,25.72
2023-04-15T09:05:15.018Z,25.69
2023-04-15T09:06:15.102Z,25.70
2023-04-15T09:07:15.141Z,25.69
2023-04-15T09:08:15.214Z,25.72
2023-04-15T09:09:15.236Z,25.72
2023-04-15T09:10:15.328Z,25.73
2023-04-15T09:11:17.108Z,25.73
2023-04-15T09:12:15.388Z,25.73
2023-04-15T09:13:15.383Z,25.74
2023-04-15T09:14:15.349Z,25.76
2023-04-15T09:15:15.348Z,25.76
2023-04-15T09:16:15.423Z,25.76
2023-04-15T09:17:15.337Z,25.77
2023-04-15T09:18:15.348Z,25.77
2023-04-15T09:19:15.351Z,25.76
2023-04-15T09:20:15.336Z,25.77
2023-04-15T09:21:15.337Z,25.79
2023-04-15T09:22:15.325Z,25.81
2023-04-15T09:23:15.356Z,25.80
2023-04-15T09:24:15.333Z,25.80
2023-04-15T09:25:15.289Z,25.85
2023-04-15T09:26:15.274Z,25.84
2023-04-15T09:27:15.313Z,25.83
2023-04-15T09:28:15.320Z,25.87
2023-04-15T09:29:15.261Z,25.87
2023-04-15T09:30:15.273Z,25.88
2023-04-15T09:31:15.888Z,25.90
2023-04-15T09:32:15.246Z,25.91
2023-04-15T09:33:15.234Z,25.94
2023-04-15T09:34:15.252Z,25.91
2023-04-15T09:35:15.224Z,25.91
2023-04-15T09:36:15.224Z,25.93
2023-04-15T09:37:31.166Z,25.93
2023-04-15T09:38:16.186Z,25.91
2023-04-15T09:39:15.181Z,25.94
2023-04-15T09:40:15.209Z,25.93
2023-04-15T09:41:15.187Z,25.93
2023-04-15T09:42:15.165Z,25.93
2023-04-15T09:43:15.179Z,25.95
2023-04-15T09:44:15.491Z,25.94
2023-04-15T09:45:15.524Z,25.94
2023-04-15T09:46:15.190Z,25.95
2023-04-15T09:47:15.144Z,25.93
2023-04-15T09:48:15.131Z,25.94
2023-04-15T09:49:15.164Z,25.94
2023-04-15T09:50:15.160Z,25.94
2023-04-15T09:51:15.118Z,25.95
2023-04-15T09:52:15.105Z,25.94
2023-04-15T09:53:15.165Z,25.94
2023-04-15T09:54:15.209Z,25.95
2023-04-15T09:55:15.206Z,25.94
2023-04-15T09:56:15.260Z,25.94
2023-04-15T09:57:15.298Z,25.94
2023-04-15T09:58:15.337Z,25.94
2023-04-15T09:59:15.363Z,25.94
2023-04-15T10:00:15.451Z,25.93
2023-04-15T10:01:15.528Z,25.94
2023-04-15T10:02:15.548Z,25.91
2023-04-15T10:03:15.750Z,25.95
2023-04-15T10:04:15.664Z,25.94
2023-04-15T10:05:15.626Z,25.93
2023-04-15T10:06:15.673Z,25.93
2023-04-15T10:07:15.731Z,25.93
2023-04-15T10:08:15.787Z,25.94
2023-04-15T10:09:15.839Z,25.95
2023-04-15T10:10:15.910Z,25.93
2023-04-15T10:11:15.886Z,25.93
2023-04-15T10:12:15.957Z,25.94
2023-04-15T10:13:15.978Z,25.91
2023-04-15T10:14:16.044Z,25.93
2023-04-15T10:15:16.088Z,25.94
2023-04-15T10:16:16.257Z,25.93
2023-04-15T10:17:16.215Z,25.94
2023-04-15T10:18:16.217Z,25.94
2023-04-15T10:19:16.257Z,25.93
2023-04-15T10:20:16.314Z,25.94
2023-04-15T10:21:16.319Z,25.93
2023-04-15T10:22:16.404Z,25.94
2023-04-15T10:23:16.433Z,25.91
2023-04-15T10:24:16.478Z,25.93
2023-04-15T10:25:16.556Z,25.91
2023-04-15T10:26:16.579Z,25.90
2023-04-15T10:27:16.644Z,25.91
2023-04-15T10:28:16.682Z,25.93
2023-04-15T10:29:16.724Z,25.91
2023-04-15T10:30:16.778Z,25.91
2023-04-15T10:31:16.839Z,25.94
2023-04-15T10:32:16.849Z,25.95
2023-04-15T10:33:16.924Z,25.95
2023-04-15T10:34:17.001Z,25.94
2023-04-15T10:35:17.003Z,25.97
2023-04-15T10:36:17.048Z,25.97
2023-04-15T10:37:17.090Z,25.95
2023-04-15T10:38:17.128Z,26.00
2023-04-15T10:39:17.178Z,26.01
2023-04-15T10:40:17.216Z,26.01
2023-04-15T10:41:19.912Z,26.04
2023-04-15T10:42:17.253Z,26.04
2023-04-15T10:43:17.242Z,26.01
2023-04-15T10:44:17.265Z,26.01
2023-04-15T10:45:17.271Z,26.01
2023-04-15T10:46:17.283Z,26.04
2023-04-15T10:47:17.215Z,26.04
2023-04-15T10:48:17.232Z,26.04
2023-04-15T10:49:17.345Z,26.04
2023-04-15T10:50:17.213Z,26.05
2023-04-15T10:51:17.215Z,26.07
2023-04-15T10:52:17.217Z,26.04
2023-04-15T10:53:17.197Z,26.07
2023-04-15T10:54:17.189Z,26.05
2023-04-15T10:55:17.172Z,26.07
2023-04-15T10:56:17.167Z,26.04
2023-04-15T10:57:17.171Z,26.04
2023-04-15T10:58:17.159Z,26.03
2023-04-15T10:59:17.145Z,26.03
2023-04-15T11:00:17.136Z,26.04
2023-04-15T11:01:17.132Z,26.03
2023-04-15T11:02:17.233Z,26.04
2023-04-15T11:03:17.147Z,26.04
2023-04-15T11:04:17.160Z,26.04
2023-04-15T11:05:17.105Z,26.04
2023-04-15T11:06:17.103Z,26.01
2023-04-15T11:07:17.101Z,26.01
2023-04-15T11:08:17.069Z,26.00
2023-04-15T11:09:17.069Z,25.98
2023-04-15T11:10:17.066Z,26.04
2023-04-15T11:11:17.059Z,26.04
2023-04-15T11:12:17.037Z,26.07
2023-04-15T11:13:17.037Z,26.05
2023-04-15T11:14:17.021Z,26.07
2023-04-15T11:15:17.055Z,26.04
2023-04-15T11:16:17.043Z,26.07
2023-04-15T11:17:17.032Z,26.04
2023-04-15T11:18:17.037Z,26.05
2023-04-15T11:19:17.019Z,26.05
2023-04-15T11:20:17.007Z,26.05
2023-04-15T11:21:16.982Z,26.07
2023-04-15T11:22:16.968Z,26.08
2023-04-15T11:23:17.021Z,26.07
2023-04-15T11:24:16.972Z,26.08
2023-04-15T11:25:16.939Z,26.11
2023-04-15T11:26:16.965Z,26.11
2023-04-15T11:27:17.044Z,26.11
2023-04-15T11:28:17.064Z,26.09
2023-04-15T11:29:17.086Z,26.11
2023-04-15T11:30:17.160Z,26.11
2023-04-15T11:31:17.223Z,26.12
2023-04-15T11:32:17.237Z,26.12
2023-04-15T11:33:17.228Z,26.17
2023-04-15T11:34:17.247Z,26.11
2023-04-15T11:35:17.299Z,26.12
2023-04-15T11:36:17.336Z,26.12
2023-04-15T11:37:17.364Z,26.12
2023-04-15T11:38:17.399Z,26.12
2023-04-15T11:39:17.423Z,26.11
2023-04-15T11:40:17.479Z,26.09
2023-04-15T11:41:17.491Z,26.07
2023-04-15T11:42:17.515Z,26.08
2023-04-15T11:43:17.558Z,26.08
2023-04-15T11:44:17.605Z,26.08
2023-04-15T11:45:17.647Z,26.05
2023-04-15T11:46:17.750Z,26.08
2023-04-15T11:47:17.792Z,26.07
2023-04-15T11:48:17.734Z,26.05
2023-04-15T11:49:17.770Z,26.04
2023-04-15T11:50:17.840Z,26.07
2023-04-15T11:51:17.848Z,26.04
2023-04-15T11:52:17.937Z,26.04
2023-04-15T11:53:17.961Z,26.04
2023-04-15T11:54:18.000Z,26.01
2023-04-15T11:55:18.044Z,26.03
2023-04-15T11:56:18.067Z,26.04
2023-04-15T11:57:18.131Z,26.03
2023-04-15T11:58:18.165Z,26.00
2023-04-15T11:59:18.223Z,26.00
2023-04-15T12:00:18.245Z,26.01
2023-04-15T12:01:18.289Z,25.98
2023-04-15T12:02:18.482Z,25.98
2023-04-15T12:03:18.562Z,26.00
2023-04-15T12:04:19.953Z,25.98
2023-04-15T12:05:18.534Z,25.97
2023-04-15T12:06:18.407Z,25.98
2023-04-15T12:07:18.388Z,25.98
2023-04-15T12:08:18.414Z,25.98
2023-04-15T12:09:18.391Z,26.00
2023-04-15T12:10:18.372Z,26.01
2023-04-15T12:11:18.367Z,26.01
2023-04-15T12:12:18.372Z,26.04
2023-04-15T12:13:18.349Z,26.03
2023-04-15T12:14:18.339Z,26.04
2023-04-15T12:15:18.356Z,26.07
2023-04-15T12:16:18.444Z,26.08
2023-04-15T12:17:18.401Z,26.09
2023-04-15T12:18:18.475Z,26.05
2023-04-15T12:19:18.334Z,26.05
2023-04-15T12:20:18.295Z,26.05
2023-04-15T12:21:18.307Z,26.08
2023-04-15T12:22:18.299Z,26.07
2023-04-15T12:23:18.256Z,26.05
2023-04-15T12:24:18.275Z,26.04
2023-04-15T12:25:18.274Z,26.05
2023-04-15T12:26:18.284Z,26.04
2023-04-15T12:27:18.267Z,26.04
2023-04-15T12:28:18.266Z,26.01
2023-04-15T12:29:18.236Z,26.03
2023-04-15T12:30:18.237Z,26.01
2023-04-15T12:31:18.281Z,26.01
2023-04-15T12:32:18.237Z,26.00
2023-04-15T12:33:18.208Z,25.98
2023-04-15T12:34:18.202Z,25.98
2023-04-15T12:35:18.213Z,25.97
2023-04-15T12:36:18.182Z,25.95
2023-04-15T12:37:18.193Z,25.97
2023-04-15T12:38:18.179Z,25.97
2023-04-15T12:39:18.175Z,25.94
2023-04-15T12:40:18.145Z,25.93
2023-04-15T12:41:18.145Z,25.88
2023-04-15T12:42:18.202Z,25.91
2023-04-15T12:43:18.165Z,25.88
2023-04-15T12:44:18.140Z,25.90
2023-04-15T12:45:18.139Z,25.88
2023-04-15T12:46:18.193Z,25.87
2023-04-15T12:47:18.192Z,25.87
2023-04-15T12:48:18.108Z,25.90
2023-04-15T12:49:18.076Z,25.84
2023-04-15T12:50:18.117Z,25.85
2023-04-15T12:51:18.110Z,25.87
2023-04-15T12:52:18.176Z,25.84
2023-04-15T12:53:18.230Z,25.84